sensor_id;sensor_type;location;lat;lon;timestamp;pressure;altitude;pressure_sealevel;temperature;humidity
9740;BME280;4909;42.680;26.324;2023-02-28T00:00:49;99257.13;;;11.32;99.24
9740;BME280;4909;42.680;26.324;2023-02-28T00:03:16;99257.03;;;10.87;100.00
9740;BME280;4909;42.680;26.324;2023-02-28T00:05:43;99261.88;;;11.00;100.00
9740;BME280;4909;42.680;26.324;2023-02-28T00:08:09;99264.19;;;11.09;100.00
9740;BME280;4909;42.680;26.324;2023-02-28T00:10:37;99261.13;;;10.96;100.00
9740;BME280;4909;42.680;26.324;2023-02-28T00:13:06;99260.53;;;11.13;100.00
9740;BME280;4909;42.680;26.324;2023-02-28T00:15:33;99258.19;;;11.04;100.00
9740;BME280;4909;42.680;26.324;2023-02-28T00:18:01;99251.97;;;11.05;100.00
9740;BME280;4909;42.680;26.324;2023-02-28T00:20:28;99249.75;;;10.93;100.00
9740;BME280;4909;42.680;26.324;2023-02-28T00:22:55;99251.41;;;10.95;100.00
9740;BME280;4909;42.680;26.324;2023-02-28T00:25:24;99247.69;;;11.01;100.00
9740;BME280;4909;42.680;26.324;2023-02-28T00:27:51;99243.38;;;10.98;100.00
9740;BME280;4909;42.680;26.324;2023-02-28T00:30:21;99232.47;;;10.81;100.00
9740;BME280;4909;42.680;26.324;2023-02-28T00:32:49;99248.59;;;11.00;100.00
9740;BME280;4909;42.680;26.324;2023-02-28T00:35:16;99245.16;;;10.98;100.00
9740;BME280;4909;42.680;26.324;2023-02-28T00:37:43;99242.56;;;11.19;100.00
9740;BME280;4909;42.680;26.324;2023-02-28T00:40:11;99244.59;;;11.36;100.00
9740;BME280;4909;42.680;26.324;2023-02-28T00:42:38;99237.75;;;11.29;100.00
9740;BME280;4909;42.680;26.324;2023-02-28T00:45:06;99244.16;;;11.23;100.00
9740;BME280;4909;42.680;26.324;2023-02-28T00:47:35;99246.41;;;10.87;100.00
9740;BME280;4909;42.680;26.324;2023-02-28T00:50:02;99249.53;;;10.99;100.00
9740;BME280;4909;42.680;26.324;2023-02-28T00:52:29;99257.88;;;11.13;100.00
9740;BME280;4909;42.680;26.324;2023-02-28T00:54:56;99260.44;;;11.14;100.00
9740;BME280;4909;42.680;26.324;2023-02-28T00:57:23;99263.75;;;11.21;100.00
9740;BME280;4909;42.680;26.324;2023-02-28T00:59:50;99255.25;;;11.11;100.00
9740;BME280;4909;42.680;26.324;2023-02-28T01:02:19;99256.22;;;11.09;100.00
9740;BME280;4909;42.680;26.324;2023-02-28T01:04:48;99260.44;;;11.14;100.00
9740;BME280;4909;42.680;26.324;2023-02-28T01:07:14;99267.34;;;11.20;100.00
9740;BME280;4909;42.680;26.324;2023-02-28T01:09:41;99260.56;;;11.11;100.00
9740;BME280;4909;42.680;26.324;2023-02-28T01:12:08;99270.13;;;11.17;100.00
9740;BME280;4909;42.680;26.324;2023-02-28T01:14:35;99280.97;;;11.11;100.00
9740;BME280;4909;42.680;26.324;2023-02-28T01:17:02;99275.13;;;10.76;100.00
9740;BME280;4909;42.680;26.324;2023-02-28T01:19:29;99244.50;;;10.66;100.00
9740;BME280;4909;42.680;26.324;2023-02-28T01:22:00;99224.03;;;10.45;100.00
9740;BME280;4909;42.680;26.324;2023-02-28T01:24:27;99283.19;;;10.73;100.00
9740;BME280;4909;42.680;26.324;2023-02-28T01:26:53;99275.47;;;10.66;100.00
9740;BME280;4909;42.680;26.324;2023-02-28T01:29:20;99272.84;;;10.66;100.00
9740;BME280;4909;42.680;26.324;2023-02-28T01:31:47;99272.75;;;10.69;100.00
9740;BME280;4909;42.680;26.324;2023-02-28T01:34:14;99277.34;;;10.64;100.00
9740;BME280;4909;42.680;26.324;2023-02-28T01:36:40;99289.00;;;10.60;100.00
9740;BME280;4909;42.680;26.324;2023-02-28T01:39:09;99286.78;;;10.72;100.00
9740;BME280;4909;42.680;26.324;2023-02-28T01:41:35;99287.34;;;10.80;100.00
9740;BME280;4909;42.680;26.324;2023-02-28T01:44:04;99306.03;;;10.53;100.00
9740;BME280;4909;42.680;26.324;2023-02-28T01:46:32;99309.09;;;10.67;100.00
9740;BME280;4909;42.680;26.324;2023-02-28T01:49:05;99323.50;;;10.84;100.00
9740;BME280;4909;42.680;26.324;2023-02-28T01:51:37;99319.94;;;10.85;100.00
9740;BME280;4909;42.680;26.324;2023-02-28T01:54:09;99315.31;;;10.90;100.00
9740;BME280;4909;42.680;26.324;2023-02-28T01:56:42;99325.19;;;10.87;100.00
9740;BME280;4909;42.680;26.324;2023-02-28T01:59:11;99306.59;;;10.62;100.00
9740;BME280;4909;42.680;26.324;2023-02-28T02:01:38;99316.56;;;10.80;100.00
9740;BME280;4909;42.680;26.324;2023-02-28T02:04:05;99311.69;;;10.68;100.00
9740;BME280;4909;42.680;26.324;2023-02-28T02:06:36;99315.31;;;10.39;100.00
9740;BME280;4909;42.680;26.324;2023-02-28T02:09:03;99325.94;;;10.39;100.00
9740;BME280;4909;42.680;26.324;2023-02-28T02:11:34;99319.19;;;10.56;100.00
9740;BME280;4909;42.680;26.324;2023-02-28T02:14:30;99312.75;;;10.63;100.00
9740;BME280;4909;42.680;26.324;2023-02-28T02:17:10;99319.75;;;10.65;100.00
9740;BME280;4909;42.680;26.324;2023-02-28T02:20:27;99306.38;;;10.68;100.00
9740;BME280;4909;42.680;26.324;2023-02-28T02:25:54;99326.09;;;10.61;100.00
9740;BME280;4909;42.680;26.324;2023-02-28T02:28:53;99331.34;;;10.63;100.00
9740;BME280;4909;42.680;26.324;2023-02-28T02:31:40;99324.50;;;10.56;100.00
9740;BME280;4909;42.680;26.324;2023-02-28T02:34:27;99317.50;;;10.79;100.00
9740;BME280;4909;42.680;26.324;2023-02-28T02:37:04;99330.91;;;10.50;100.00
9740;BME280;4909;42.680;26.324;2023-02-28T02:39:40;99340.53;;;10.53;100.00
9740;BME280;4909;42.680;26.324;2023-02-28T02:42:14;99335.94;;;10.58;100.00
9740;BME280;4909;42.680;26.324;2023-02-28T02:44:48;99340.50;;;10.54;100.00
9740;BME280;4909;42.680;26.324;2023-02-28T02:47:20;99319.75;;;10.65;99.09
9740;BME280;4909;42.680;26.324;2023-02-28T02:49:52;99303.72;;;10.42;98.94
9740;BME280;4909;42.680;26.324;2023-02-28T02:52:24;99334.25;;;10.29;100.00
9740;BME280;4909;42.680;26.324;2023-02-28T02:54:55;99340.72;;;10.20;100.00
9740;BME280;4909;42.680;26.324;2023-02-28T02:57:29;99343.53;;;10.42;100.00
9740;BME280;4909;42.680;26.324;2023-02-28T02:59:57;99338.38;;;10.37;100.00
9740;BME280;4909;42.680;26.324;2023-02-28T03:02:23;99341.28;;;10.56;100.00
9740;BME280;4909;42.680;26.324;2023-02-28T03:04:58;99339.31;;;10.63;100.00
9740;BME280;4909;42.680;26.324;2023-02-28T03:07:26;99346.09;;;10.45;99.87
9740;BME280;4909;42.680;26.324;2023-02-28T03:09:54;99348.66;;;10.48;99.78
9740;BME280;4909;42.680;26.324;2023-02-28T03:12:23;99351.25;;;10.50;99.63
9740;BME280;4909;42.680;26.324;2023-02-28T03:15:04;99352.94;;;10.52;99.85
9740;BME280;4909;42.680;26.324;2023-02-28T03:17:47;99360.94;;;10.51;100.00
9740;BME280;4909;42.680;26.324;2023-02-28T03:20:30;99368.00;;;10.52;99.80
9740;BME280;4909;42.680;26.324;2023-02-28T03:23:09;99377.66;;;10.54;99.23
9740;BME280;4909;42.680;26.324;2023-02-28T03:25:41;99370.00;;;10.71;97.28
9740;BME280;4909;42.680;26.324;2023-02-28T03:28:15;99374.69;;;10.63;98.37
9740;BME280;4909;42.680;26.324;2023-02-28T03:30:48;99377.25;;;10.66;97.18
9740;BME280;4909;42.680;26.324;2023-02-28T03:33:21;99356.28;;;10.59;96.25
9740;BME280;4909;42.680;26.324;2023-02-28T03:35:53;99364.69;;;10.45;98.23
9740;BME280;4909;42.680;26.324;2023-02-28T03:38:24;99368.59;;;10.33;98.17
9740;BME280;4909;42.680;26.324;2023-02-28T03:40:59;99372.84;;;10.39;98.73
9740;BME280;4909;42.680;26.324;2023-02-28T03:43:31;99357.41;;;10.24;99.96
9740;BME280;4909;42.680;26.324;2023-02-28T03:46:06;99373.63;;;10.41;99.48
9740;BME280;4909;42.680;26.324;2023-02-28T03:48:38;99374.81;;;10.32;99.30
9740;BME280;4909;42.680;26.324;2023-02-28T03:51:10;99361.66;;;10.29;99.52
9740;BME280;4909;42.680;26.324;2023-02-28T03:53:42;99373.28;;;10.25;98.56
9740;BME280;4909;42.680;26.324;2023-02-28T03:56:14;99373.75;;;10.09;99.32
9740;BME280;4909;42.680;26.324;2023-02-28T03:58:47;99364.03;;;10.09;100.00
9740;BME280;4909;42.680;26.324;2023-02-28T04:01:18;99369.13;;;10.15;100.00
9740;BME280;4909;42.680;26.324;2023-02-28T04:03:47;99380.69;;;10.13;100.00
9740;BME280;4909;42.680;26.324;2023-02-28T04:06:17;99394.91;;;10.12;100.00
9740;BME280;4909;42.680;26.324;2023-02-28T04:08:45;99376.56;;;10.04;100.00
9740;BME280;4909;42.680;26.324;2023-02-28T04:11:18;99396.13;;;10.00;99.27
9740;BME280;4909;42.680;26.324;2023-02-28T04:13:46;99396.00;;;10.04;100.00
9740;BME280;4909;42.680;26.324;2023-02-28T04:16:13;99398.19;;;9.90;100.00
9740;BME280;4909;42.680;26.324;2023-02-28T04:18:41;99389.41;;;9.88;100.00
9740;BME280;4909;42.680;26.324;2023-02-28T04:21:09;99355.75;;;9.61;100.00
9740;BME280;4909;42.680;26.324;2023-02-28T04:23:38;99393.28;;;9.77;100.00
9740;BME280;4909;42.680;26.324;2023-02-28T04:26:05;99390.41;;;9.84;100.00
9740;BME280;4909;42.680;26.324;2023-02-28T04:28:32;99402.38;;;9.97;100.00
9740;BME280;4909;42.680;26.324;2023-02-28T04:31:01;99412.63;;;10.10;99.68
9740;BME280;4909;42.680;26.324;2023-02-28T04:33:28;99405.13;;;9.94;99.75
9740;BME280;4909;42.680;26.324;2023-02-28T04:36:00;99413.31;;;9.87;99.39
9740;BME280;4909;42.680;26.324;2023-02-28T04:38:28;99414.28;;;9.53;100.00
9740;BME280;4909;42.680;26.324;2023-02-28T04:40:58;99408.25;;;9.48;100.00
9740;BME280;4909;42.680;26.324;2023-02-28T04:43:26;99413.78;;;9.39;100.00
9740;BME280;4909;42.680;26.324;2023-02-28T04:45:52;99380.16;;;9.41;100.00
9740;BME280;4909;42.680;26.324;2023-02-28T04:48:22;99420.72;;;9.76;100.00
9740;BME280;4909;42.680;26.324;2023-02-28T04:50:48;99412.66;;;9.79;100.00
9740;BME280;4909;42.680;26.324;2023-02-28T04:53:15;99402.44;;;9.67;100.00
9740;BME280;4909;42.680;26.324;2023-02-28T04:55:42;99409.19;;;9.77;100.00
9740;BME280;4909;42.680;26.324;2023-02-28T04:58:10;99410.84;;;9.81;100.00
9740;BME280;4909;42.680;26.324;2023-02-28T05:00:37;99388.50;;;9.89;100.00
9740;BME280;4909;42.680;26.324;2023-02-28T05:03:04;99415.59;;;9.99;100.00
9740;BME280;4909;42.680;26.324;2023-02-28T05:05:31;99422.38;;;10.09;100.00
9740;BME280;4909;42.680;26.324;2023-02-28T05:07:58;99424.81;;;10.17;99.38
9740;BME280;4909;42.680;26.324;2023-02-28T05:10:24;99440.53;;;10.24;98.61
9740;BME280;4909;42.680;26.324;2023-02-28T05:12:51;99433.72;;;10.14;98.26
9740;BME280;4909;42.680;26.324;2023-02-28T05:15:19;99432.38;;;10.30;98.07
9740;BME280;4909;42.680;26.324;2023-02-28T05:17:46;99437.75;;;10.27;97.05
9740;BME280;4909;42.680;26.324;2023-02-28T05:20:13;99443.97;;;10.26;97.97
9740;BME280;4909;42.680;26.324;2023-02-28T05:22:40;99448.19;;;10.33;97.31
9740;BME280;4909;42.680;26.324;2023-02-28T05:25:08;99444.31;;;10.45;97.27
9740;BME280;4909;42.680;26.324;2023-02-28T05:27:37;99451.63;;;10.37;97.24
9740;BME280;4909;42.680;26.324;2023-02-28T05:30:05;99440.22;;;10.33;97.03
9740;BME280;4909;42.680;26.324;2023-02-28T05:32:37;99454.91;;;10.45;97.24
9740;BME280;4909;42.680;26.324;2023-02-28T05:35:04;99463.66;;;10.49;95.68
9740;BME280;4909;42.680;26.324;2023-02-28T05:37:32;99468.09;;;10.19;95.56
9740;BME280;4909;42.680;26.324;2023-02-28T05:39:58;99468.69;;;9.67;96.91
9740;BME280;4909;42.680;26.324;2023-02-28T05:42:25;99397.84;;;9.08;99.16
9740;BME280;4909;42.680;26.324;2023-02-28T05:44:52;99480.91;;;9.72;99.13
9740;BME280;4909;42.680;26.324;2023-02-28T05:47:19;99483.69;;;9.98;97.79
9740;BME280;4909;42.680;26.324;2023-02-28T05:49:47;99491.78;;;9.94;97.22
9740;BME280;4909;42.680;26.324;2023-02-28T05:52:13;99496.19;;;9.93;96.43
9740;BME280;4909;42.680;26.324;2023-02-28T05:54:41;99498.38;;;9.79;97.29
9740;BME280;4909;42.680;26.324;2023-02-28T05:57:07;99496.69;;;9.77;97.42
9740;BME280;4909;42.680;26.324;2023-02-28T05:59:34;99498.53;;;9.73;97.56
9740;BME280;4909;42.680;26.324;2023-02-28T06:02:05;99494.16;;;9.72;98.13
9740;BME280;4909;42.680;26.324;2023-02-28T06:04:32;99497.50;;;9.79;97.39
9740;BME280;4909;42.680;26.324;2023-02-28T06:07:00;99480.19;;;9.66;98.30
9740;BME280;4909;42.680;26.324;2023-02-28T06:09:27;99493.78;;;9.86;97.52
9740;BME280;4909;42.680;26.324;2023-02-28T06:11:54;99506.53;;;10.02;96.91
9740;BME280;4909;42.680;26.324;2023-02-28T06:14:21;99495.88;;;10.06;96.10
9740;BME280;4909;42.680;26.324;2023-02-28T06:16:48;99498.16;;;10.19;96.23
9740;BME280;4909;42.680;26.324;2023-02-28T06:19:15;99505.56;;;10.37;95.31
9740;BME280;4909;42.680;26.324;2023-02-28T06:21:42;99497.00;;;10.28;95.03
9740;BME280;4909;42.680;26.324;2023-02-28T06:24:10;99479.25;;;10.30;95.19
9740;BME280;4909;42.680;26.324;2023-02-28T06:26:37;99495.00;;;10.36;93.37
9740;BME280;4909;42.680;26.324;2023-02-28T06:29:04;99491.13;;;10.46;93.72
9740;BME280;4909;42.680;26.324;2023-02-28T06:31:30;99487.72;;;10.42;93.51
9740;BME280;4909;42.680;26.324;2023-02-28T06:33:57;99489.31;;;10.48;93.79
9740;BME280;4909;42.680;26.324;2023-02-28T06:36:24;99489.75;;;10.62;93.38
9740;BME280;4909;42.680;26.324;2023-02-28T06:38:51;99485.88;;;10.74;92.89
9740;BME280;4909;42.680;26.324;2023-02-28T06:41:22;99494.47;;;10.80;92.00
9740;BME280;4909;42.680;26.324;2023-02-28T06:43:49;99496.69;;;10.94;90.99
9740;BME280;4909;42.680;26.324;2023-02-28T06:46:16;99492.41;;;10.90;90.60
9740;BME280;4909;42.680;26.324;2023-02-28T06:48:43;99496.69;;;10.94;90.46
9740;BME280;4909;42.680;26.324;2023-02-28T06:51:12;99493.91;;;10.99;89.86
9740;BME280;4909;42.680;26.324;2023-02-28T06:53:40;99497.38;;;11.01;88.93
9740;BME280;4909;42.680;26.324;2023-02-28T06:56:08;99494.59;;;11.04;88.92
9740;BME280;4909;42.680;26.324;2023-02-28T06:58:37;99492.09;;;10.99;88.51
9740;BME280;4909;42.680;26.324;2023-02-28T07:01:06;99502.44;;;10.80;88.17
9740;BME280;4909;42.680;26.324;2023-02-28T07:03:34;99501.56;;;10.80;89.43
9740;BME280;4909;42.680;26.324;2023-02-28T07:06:01;99500.47;;;10.87;88.84
9740;BME280;4909;42.680;26.324;2023-02-28T07:08:29;99501.69;;;10.77;88.09
9740;BME280;4909;42.680;26.324;2023-02-28T07:10:57;99499.94;;;10.76;87.73
9740;BME280;4909;42.680;26.324;2023-02-28T07:13:24;99512.78;;;10.62;88.15
9740;BME280;4909;42.680;26.324;2023-02-28T07:15:56;99508.97;;;10.41;89.09
9740;BME280;4909;42.680;26.324;2023-02-28T07:18:24;99518.19;;;10.29;90.40
9740;BME280;4909;42.680;26.324;2023-02-28T07:20:52;99473.22;;;9.94;91.35
9740;BME280;4909;42.680;26.324;2023-02-28T07:23:19;99526.34;;;10.22;92.02
9740;BME280;4909;42.680;26.324;2023-02-28T07:25:46;99524.50;;;10.25;91.31
9740;BME280;4909;42.680;26.324;2023-02-28T07:28:13;99531.66;;;10.22;91.97
9740;BME280;4909;42.680;26.324;2023-02-28T07:30:40;99519.06;;;9.67;94.80
9740;BME280;4909;42.680;26.324;2023-02-28T07:33:08;99523.31;;;9.72;95.80
9740;BME280;4909;42.680;26.324;2023-02-28T07:35:35;99519.06;;;9.67;97.09
9740;BME280;4909;42.680;26.324;2023-02-28T07:38:03;99517.66;;;9.84;96.14
9740;BME280;4909;42.680;26.324;2023-02-28T07:40:29;99520.88;;;9.65;96.64
9740;BME280;4909;42.680;26.324;2023-02-28T07:42:58;99522.25;;;9.45;97.60
9740;BME280;4909;42.680;26.324;2023-02-28T07:45:25;99519.66;;;9.44;97.06
9740;BME280;4909;42.680;26.324;2023-02-28T07:47:54;99526.03;;;9.37;97.52
9740;BME280;4909;42.680;26.324;2023-02-28T07:50:22;99498.91;;;9.26;96.64
9740;BME280;4909;42.680;26.324;2023-02-28T07:52:49;99534.06;;;9.34;97.03
9740;BME280;4909;42.680;26.324;2023-02-28T07:55:16;99518.31;;;9.28;97.74
9740;BME280;4909;42.680;26.324;2023-02-28T07:57:43;99542.88;;;9.34;97.80
9740;BME280;4909;42.680;26.324;2023-02-28T08:00:28;99538.75;;;9.56;97.29
9740;BME280;4909;42.680;26.324;2023-02-28T08:02:57;99535.50;;;9.79;95.51
9740;BME280;4909;42.680;26.324;2023-02-28T08:05:25;99538.78;;;9.55;95.84
9740;BME280;4909;42.680;26.324;2023-02-28T08:07:52;99537.63;;;9.65;95.73
9740;BME280;4909;42.680;26.324;2023-02-28T08:10:21;99537.38;;;9.42;95.80
9740;BME280;4909;42.680;26.324;2023-02-28T08:12:49;99538.16;;;9.45;96.05
9740;BME280;4909;42.680;26.324;2023-02-28T08:15:16;99535.38;;;9.16;97.16
9740;BME280;4909;42.680;26.324;2023-02-28T08:17:42;99527.06;;;9.30;96.90
9740;BME280;4909;42.680;26.324;2023-02-28T08:20:10;99533.13;;;9.35;96.90
9740;BME280;4909;42.680;26.324;2023-02-28T08:22:38;99537.88;;;9.56;95.67
9740;BME280;4909;42.680;26.324;2023-02-28T08:25:06;99535.13;;;9.60;95.25
9740;BME280;4909;42.680;26.324;2023-02-28T08:27:33;99519.09;;;9.65;95.06
9740;BME280;4909;42.680;26.324;2023-02-28T08:30:00;99504.66;;;9.75;94.34
9740;BME280;4909;42.680;26.324;2023-02-28T08:32:27;99522.59;;;9.98;93.58
9740;BME280;4909;42.680;26.324;2023-02-28T08:34:53;99529.34;;;10.10;93.16
9740;BME280;4909;42.680;26.324;2023-02-28T08:37:20;99521.28;;;10.13;92.77
9740;BME280;4909;42.680;26.324;2023-02-28T08:39:48;99522.03;;;10.19;92.25
9740;BME280;4909;42.680;26.324;2023-02-28T08:42:15;99516.22;;;10.05;92.61
9740;BME280;4909;42.680;26.324;2023-02-28T08:44:42;99521.81;;;9.94;91.77
9740;BME280;4909;42.680;26.324;2023-02-28T08:47:09;99532.81;;;9.81;91.68
9740;BME280;4909;42.680;26.324;2023-02-28T08:49:36;99525.91;;;9.74;92.68
9740;BME280;4909;42.680;26.324;2023-02-28T08:52:04;99534.13;;;9.65;93.38
9740;BME280;4909;42.680;26.324;2023-02-28T08:54:31;99530.34;;;9.73;94.02
9740;BME280;4909;42.680;26.324;2023-02-28T08:57:00;99529.06;;;9.88;93.37
9740;BME280;4909;42.680;26.324;2023-02-28T08:59:27;99532.81;;;9.81;93.43
9740;BME280;4909;42.680;26.324;2023-02-28T09:01:54;99545.66;;;9.96;92.71
9740;BME280;4909;42.680;26.324;2023-02-28T09:04:21;99550.63;;;9.76;93.81
9740;BME280;4909;42.680;26.324;2023-02-28T09:06:48;99547.38;;;9.65;95.03
9740;BME280;4909;42.680;26.324;2023-02-28T09:09:15;99520.34;;;9.52;94.66
9740;BME280;4909;42.680;26.324;2023-02-28T09:11:42;99554.84;;;9.49;96.00
9740;BME280;4909;42.680;26.324;2023-02-28T09:14:10;99560.47;;;9.37;96.26
9740;BME280;4909;42.680;26.324;2023-02-28T09:16:37;99544.22;;;9.15;98.38
9740;BME280;4909;42.680;26.324;2023-02-28T09:19:04;99533.44;;;9.23;98.13
9740;BME280;4909;42.680;26.324;2023-02-28T09:21:31;99538.78;;;9.55;97.42
9740;BME280;4909;42.680;26.324;2023-02-28T09:23:57;99547.19;;;9.72;95.51
9740;BME280;4909;42.680;26.324;2023-02-28T09:26:26;99552.28;;;9.80;95.41
9740;BME280;4909;42.680;26.324;2023-02-28T09:28:54;99532.66;;;9.87;94.80
9740;BME280;4909;42.680;26.324;2023-02-28T09:31:25;99542.59;;;10.10;93.50
9740;BME280;4909;42.680;26.324;2023-02-28T09:33:53;99511.06;;;9.99;92.86
9740;BME280;4909;42.680;26.324;2023-02-28T09:36:21;99542.50;;;10.45;92.79
9740;BME280;4909;42.680;26.324;2023-02-28T09:38:48;99543.00;;;10.27;92.22
9740;BME280;4909;42.680;26.324;2023-02-28T09:41:19;99542.66;;;10.40;91.97
9740;BME280;4909;42.680;26.324;2023-02-28T09:43:49;99531.69;;;10.51;91.64
9740;BME280;4909;42.680;26.324;2023-02-28T09:46:28;99496.34;;;10.21;92.20
9740;BME280;4909;42.680;26.324;2023-02-28T09:48:59;99530.91;;;10.18;93.62
9740;BME280;4909;42.680;26.324;2023-02-28T09:51:33;99530.44;;;10.33;94.36
9740;BME280;4909;42.680;26.324;2023-02-28T09:54:02;99528.66;;;10.63;91.53
9740;BME280;4909;42.680;26.324;2023-02-28T09:56:33;99528.72;;;10.62;91.17
9740;BME280;4909;42.680;26.324;2023-02-28T09:59:05;99533.41;;;10.81;90.44
9740;BME280;4909;42.680;26.324;2023-02-28T10:01:42;99529.72;;;10.58;91.42
9740;BME280;4909;42.680;26.324;2023-02-28T10:04:16;99528.72;;;10.62;91.46
9740;BME280;4909;42.680;26.324;2023-02-28T10:06:51;99531.22;;;10.66;90.98
9740;BME280;4909;42.680;26.324;2023-02-28T10:09:23;99522.66;;;10.27;93.67
9740;BME280;4909;42.680;26.324;2023-02-28T10:11:52;99533.25;;;10.29;93.14
9740;BME280;4909;42.680;26.324;2023-02-28T10:14:21;99522.03;;;10.19;93.45
9740;BME280;4909;42.680;26.324;2023-02-28T10:16:52;99517.81;;;10.11;93.89
9740;BME280;4909;42.680;26.324;2023-02-28T10:19:25;99520.88;;;9.97;94.34
9740;BME280;4909;42.680;26.324;2023-02-28T10:21:59;99516.38;;;9.68;95.69
9740;BME280;4909;42.680;26.324;2023-02-28T10:24:29;99508.59;;;9.60;96.43
9740;BME280;4909;42.680;26.324;2023-02-28T10:27:01;99500.78;;;9.56;97.68
9740;BME280;4909;42.680;26.324;2023-02-28T10:29:32;99507.97;;;9.51;97.57
9740;BME280;4909;42.680;26.324;2023-02-28T10:32:02;99506.81;;;9.63;97.05
9740;BME280;4909;42.680;26.324;2023-02-28T10:34:30;99493.97;;;9.78;96.47
9740;BME280;4909;42.680;26.324;2023-02-28T10:36:58;99496.56;;;9.81;96.00
9740;BME280;4909;42.680;26.324;2023-02-28T10:39:40;99501.00;;;9.48;97.48
9740;BME280;4909;42.680;26.324;2023-02-28T10:42:23;99487.69;;;9.50;98.38
9740;BME280;4909;42.680;26.324;2023-02-28T10:45:07;99485.25;;;9.75;97.45
9740;BME280;4909;42.680;26.324;2023-02-28T10:47:48;99480.97;;;9.69;97.52
9740;BME280;4909;42.680;26.324;2023-02-28T10:50:33;99473.47;;;9.85;96.80
9740;BME280;4909;42.680;26.324;2023-02-28T10:53:22;99465.66;;;10.11;95.98
9740;BME280;4909;42.680;26.324;2023-02-28T10:55:57;99463.63;;;10.21;94.92
9740;BME280;4909;42.680;26.324;2023-02-28T10:58:27;99440.66;;;10.20;93.06
9740;BME280;4909;42.680;26.324;2023-02-28T11:00:54;99457.59;;;10.16;93.74
9740;BME280;4909;42.680;26.324;2023-02-28T11:03:28;99444.97;;;10.22;93.74
9740;BME280;4909;42.680;26.324;2023-02-28T11:05:56;99443.41;;;10.15;94.22
9740;BME280;4909;42.680;26.324;2023-02-28T11:08:23;99443.59;;;10.09;95.63
9740;BME280;4909;42.680;26.324;2023-02-28T11:10:54;99455.25;;;10.34;94.43
9740;BME280;4909;42.680;26.324;2023-02-28T11:13:27;99449.63;;;10.45;93.36
9740;BME280;4909;42.680;26.324;2023-02-28T11:15:57;99429.88;;;10.26;94.30
9740;BME280;4909;42.680;26.324;2023-02-28T11:18:29;99437.44;;;10.38;93.42
9740;BME280;4909;42.680;26.324;2023-02-28T11:20:59;99416.38;;;10.02;93.95
9740;BME280;4909;42.680;26.324;2023-02-28T11:23:30;99439.81;;;10.18;94.39
9740;BME280;4909;42.680;26.324;2023-02-28T11:26:00;99432.84;;;10.14;94.63
9740;BME280;4909;42.680;26.324;2023-02-28T11:28:28;99444.31;;;10.16;95.90
9740;BME280;4909;42.680;26.324;2023-02-28T11:31:06;99436.59;;;10.07;95.83
9740;BME280;4909;42.680;26.324;2023-02-28T11:33:44;99433.00;;;10.08;95.25
9740;BME280;4909;42.680;26.324;2023-02-28T11:36:14;99423.69;;;10.25;94.64
9740;BME280;4909;42.680;26.324;2023-02-28T11:38:41;99432.03;;;10.41;93.85
9740;BME280;4909;42.680;26.324;2023-02-28T11:41:36;99433.09;;;10.63;92.08
9740;BME280;4909;42.680;26.324;2023-02-28T11:44:21;99393.63;;;9.95;94.03
9740;BME280;4909;42.680;26.324;2023-02-28T11:46:51;99430.50;;;10.03;94.61
9740;BME280;4909;42.680;26.324;2023-02-28T11:49:31;99448.81;;;9.50;98.11
9740;BME280;4909;42.680;26.324;2023-02-28T11:52:04;99442.38;;;9.59;98.58
9740;BME280;4909;42.680;26.324;2023-02-28T11:54:55;99446.63;;;9.34;100.00
9740;BME280;4909;42.680;26.324;2023-02-28T11:57:33;99438.63;;;9.35;100.00
9740;BME280;4909;42.680;26.324;2023-02-28T12:00:08;99441.13;;;9.41;100.00
9740;BME280;4909;42.680;26.324;2023-02-28T12:02:53;99410.94;;;8.81;100.00
9740;BME280;4909;42.680;26.324;2023-02-28T12:05:30;99452.31;;;9.19;100.00
9740;BME280;4909;42.680;26.324;2023-02-28T12:08:14;99451.56;;;9.13;100.00
9740;BME280;4909;42.680;26.324;2023-02-28T12:10:57;99451.19;;;8.95;100.00
9740;BME280;4909;42.680;26.324;2023-02-28T12:13:34;99453.84;;;8.93;100.00
9740;BME280;4909;42.680;26.324;2023-02-28T12:16:29;99463.53;;;8.94;100.00
9740;BME280;4909;42.680;26.324;2023-02-28T12:19:07;99469.84;;;8.89;100.00
9740;BME280;4909;42.680;26.324;2023-02-28T12:21:48;99475.94;;;8.92;100.00
9740;BME280;4909;42.680;26.324;2023-02-28T12:24:44;99468.88;;;8.91;100.00
9740;BME280;4909;42.680;26.324;2023-02-28T12:27:20;99466.06;;;8.99;100.00
9740;BME280;4909;42.680;26.324;2023-02-28T12:29:51;99453.00;;;8.91;100.00
9740;BME280;4909;42.680;26.324;2023-02-28T12:32:25;99432.03;;;8.84;100.00
9740;BME280;4909;42.680;26.324;2023-02-28T12:34:57;99439.75;;;8.93;100.00
9740;BME280;4909;42.680;26.324;2023-02-28T12:37:29;99445.66;;;9.02;100.00
9740;BME280;4909;42.680;26.324;2023-02-28T12:40:01;99430.28;;;9.16;100.00
9740;BME280;4909;42.680;26.324;2023-02-28T12:42:33;99432.47;;;9.01;100.00
9740;BME280;4909;42.680;26.324;2023-02-28T12:45:08;99420.09;;;9.01;100.00
9740;BME280;4909;42.680;26.324;2023-02-28T12:47:38;99418.81;;;9.16;100.00
9740;BME280;4909;42.680;26.324;2023-02-28T12:50:09;99416.75;;;9.29;100.00
9740;BME280;4909;42.680;26.324;2023-02-28T12:52:43;99414.97;;;9.29;100.00
9740;BME280;4909;42.680;26.324;2023-02-28T12:55:16;99419.31;;;9.30;100.00
9740;BME280;4909;42.680;26.324;2023-02-28T12:57:51;99420.94;;;9.36;100.00
9740;BME280;4909;42.680;26.324;2023-02-28T13:00:22;99417.72;;;9.25;100.00
9740;BME280;4909;42.680;26.324;2023-02-28T13:06:24;99419.28;;;8.99;100.00
9740;BME280;4909;42.680;26.324;2023-02-28T13:09:06;99426.63;;;8.88;100.00
9740;BME280;4909;42.680;26.324;2023-02-28T13:11:39;99414.28;;;8.87;100.00
9740;BME280;4909;42.680;26.324;2023-02-28T13:14:22;99416.03;;;8.88;100.00
9740;BME280;4909;42.680;26.324;2023-02-28T13:16:57;99417.72;;;8.91;100.00
9740;BME280;4909;42.680;26.324;2023-02-28T13:19:27;99418.53;;;8.94;100.00
9740;BME280;4909;42.680;26.324;2023-02-28T13:21:55;99415.03;;;8.92;100.00
9740;BME280;4909;42.680;26.324;2023-02-28T13:24:45;99412.34;;;8.60;100.00
9740;BME280;4909;42.680;26.324;2023-02-28T13:27:37;99413.41;;;8.87;100.00
9740;BME280;4909;42.680;26.324;2023-02-28T13:33:25;99411.66;;;8.52;100.00
9740;BME280;4909;42.680;26.324;2023-02-28T13:36:22;99398.88;;;8.69;100.00
9740;BME280;4909;42.680;26.324;2023-02-28T13:38:50;99402.00;;;8.85;100.00